createdAt,value
2019-04-20T01:29:03.939Z,11.87
2019-04-20T01:33:18.826Z,7.03
2019-04-20T01:37:27.455Z,5.80
2019-04-20T02:32:15.810Z,7.50
2019-04-20T02:36:38.218Z,6.30
2019-04-20T02:44:49.913Z,5.70
2019-04-20T02:49:07.465Z,8.13
2019-04-20T02:53:15.636Z,6.73
2019-04-20T02:57:20.506Z,6.10
2019-04-20T03:01:40.745Z,8.47
2019-04-20T03:05:41.429Z,7.00
2019-04-20T03:10:02.555Z,9.70
2019-04-20T03:14:10.684Z,6.63
2019-04-20T03:18:22.302Z,6.03
2019-04-20T03:22:51.159Z,8.20
2019-04-20T03:26:56.935Z,6.23
2019-04-20T03:31:41.536Z,6.87
2019-04-20T03:35:22.397Z,6.87
2019-04-20T03:39:30.227Z,7.20
2019-04-20T03:43:22.285Z,6.50
2019-04-20T03:47:43.800Z,5.93
2019-04-20T03:52:19.261Z,6.70
2019-04-20T03:56:42.044Z,9.40
2019-04-20T04:01:03.913Z,6.87
2019-04-20T04:05:17.667Z,8.87
2019-04-20T04:09:25.734Z,7.70
2019-04-20T04:39:00.977Z,8.37
2019-04-20T04:42:52.557Z,7.70
2019-04-20T04:46:53.509Z,8.03
2019-04-20T04:50:59.532Z,8.57
2019-04-20T05:03:44.720Z,9.90
2019-04-20T05:07:47.781Z,12.07
2019-04-20T05:11:51.784Z,26.67
2019-04-20T05:16:07.599Z,9.27
2019-04-20T05:20:31.719Z,15.70
2019-04-20T05:25:02.266Z,21.70
2019-04-20T05:29:01.166Z,9.00
2019-04-20T05:33:07.962Z,10.50
2019-04-20T05:37:59.793Z,7.63
2019-04-20T05:41:41.937Z,8.20
2019-04-20T05:45:45.114Z,8.43
2019-04-20T05:50:01.213Z,11.70
2019-04-20T05:54:23.312Z,9.17
2019-04-20T05:58:30.968Z,12.50
2019-04-20T06:02:36.668Z,11.63
2019-04-20T06:06:49.612Z,14.30
2019-04-20T06:11:04.576Z,10.63
2019-04-20T06:15:21.172Z,9.70
2019-04-20T06:19:35.924Z,10.13
2019-04-20T06:23:56.484Z,11.20
2019-04-20T07:22:49.323Z,7.37
2019-04-20T07:26:55.941Z,8.80
2019-04-20T07:31:05.649Z,7.60
2019-04-20T07:35:14.516Z,9.57
2019-04-20T07:48:09.349Z,7.53
2019-04-20T08:46:15.024Z,8.80
2019-04-20T09:07:00.121Z,7.80
2019-04-20T09:11:14.307Z,7.87
2019-04-20T09:15:08.244Z,7.60
2019-04-20T09:19:32.470Z,7.43
2019-04-20T09:23:48.006Z,7.10
2019-04-20T09:28:15.035Z,8.00
2019-04-20T09:32:31.262Z,7.80
2019-04-20T09:37:04.695Z,7.33
2019-04-20T09:41:18.484Z,7.47
2019-04-20T09:45:08.278Z,8.00
2019-04-20T09:49:29.542Z,6.77
2019-04-20T09:53:39.012Z,7.17
2019-04-20T09:57:57.602Z,6.87
2019-04-20T10:02:01.199Z,7.63
2019-04-20T10:06:01.322Z,7.03
2019-04-20T10:10:23.906Z,8.40
2019-04-20T10:14:21.042Z,7.17
2019-04-20T10:18:30.079Z,9.47
2019-04-20T10:22:38.834Z,7.20
2019-04-20T10:26:48.253Z,7.20
2019-04-20T10:30:58.835Z,7.00
2019-04-20T10:35:08.680Z,7.97
2019-04-20T10:39:20.426Z,7.77
2019-04-20T10:43:30.269Z,8.50
2019-04-20T10:47:39.462Z,7.00
2019-04-20T10:51:49.566Z,7.37
2019-04-20T10:55:58.830Z,7.50
2019-04-20T11:00:09.874Z,6.43
2019-04-20T11:04:18.970Z,7.87
2019-04-20T11:08:28.645Z,6.27
2019-04-20T11:12:38.127Z,8.10
2019-04-20T11:16:48.539Z,7.50
2019-04-20T11:20:57.514Z,7.60
2019-04-20T11:25:08.195Z,6.80
2019-04-20T11:29:18.177Z,8.33
2019-04-20T11:33:27.838Z,6.17
2019-04-20T11:37:37.311Z,6.77
2019-04-20T11:41:47.650Z,8.00
2019-04-20T11:45:56.766Z,8.00
2019-04-20T11:50:07.309Z,7.90
2019-04-20T11:54:16.602Z,7.93
2019-04-20T11:58:26.080Z,8.40
2019-04-20T12:02:57.001Z,7.87
2019-04-20T12:07:06.716Z,8.03
2019-04-20T12:11:26.466Z,7.80
2019-04-20T12:15:27.009Z,7.07
2019-04-20T12:19:36.266Z,8.87
2019-04-20T12:23:46.539Z,7.33
2019-04-20T12:27:58.621Z,9.30
2019-04-20T12:32:08.598Z,7.60
2019-04-20T12:36:18.390Z,14.57
2019-04-20T12:40:28.109Z,8.00
2019-04-20T12:44:37.681Z,9.10
2019-04-20T12:48:47.436Z,7.23
2019-04-20T12:52:56.704Z,8.63
2019-04-20T12:57:06.754Z,7.93
2019-04-20T13:01:17.767Z,7.93
2019-04-20T13:05:27.637Z,7.37
2019-04-20T13:09:46.353Z,11.93
2019-04-20T13:14:35.709Z,9.70
2019-04-20T13:18:57.137Z,9.03
2019-04-20T13:23:07.441Z,7.53
2019-04-20T13:27:16.881Z,8.47
2019-04-20T13:31:26.183Z,10.63
2019-04-20T13:35:36.293Z,7.90
2019-04-20T13:39:46.787Z,8.57
2019-04-20T13:43:57.914Z,8.50
2019-04-20T13:48:06.694Z,8.47
2019-04-20T13:52:15.836Z,8.33
2019-04-20T13:56:27.753Z,8.40
2019-04-20T14:01:01.018Z,8.20
2019-04-20T14:05:10.843Z,8.93
2019-04-20T14:09:21.243Z,10.97
2019-04-20T14:13:38.942Z,9.00
2019-04-20T14:17:41.493Z,7.63
2019-04-20T14:21:50.414Z,9.00
2019-04-20T14:25:59.226Z,9.20
2019-04-20T14:30:08.975Z,8.40
2019-04-20T14:34:18.614Z,10.03
2019-04-20T14:38:28.531Z,8.63
2019-04-20T14:42:44.791Z,11.73
2019-04-20T14:46:47.953Z,8.67
2019-04-20T14:50:57.014Z,8.40
2019-04-20T14:55:06.307Z,8.73
2019-04-20T14:59:43.862Z,8.80
2019-04-20T15:03:59.814Z,12.13
2019-04-20T15:08:04.715Z,7.60
2019-04-20T15:12:14.928Z,9.27
2019-04-20T15:16:24.679Z,9.73
2019-04-20T15:20:37.476Z,8.53
2019-04-20T15:24:47.270Z,8.80
2019-04-20T15:28:56.624Z,9.17
2019-04-20T15:33:07.180Z,8.87
2019-04-20T15:37:16.232Z,8.37
2019-04-20T15:41:25.299Z,8.67
2019-04-20T15:45:34.343Z,8.87
2019-04-20T15:49:44.158Z,9.00
2019-04-20T15:53:53.661Z,8.97
2019-04-20T15:58:06.070Z,7.93
2019-04-20T16:02:35.728Z,8.43
2019-04-20T16:06:45.232Z,8.47
2019-04-20T16:10:55.232Z,8.07
2019-04-20T16:15:04.608Z,8.53
2019-04-20T16:19:27.858Z,9.60
2019-04-20T16:23:24.924Z,8.33
2019-04-20T16:27:36.018Z,8.30
2019-04-20T16:31:48.441Z,8.80
2019-04-20T16:35:56.436Z,8.47
2019-04-20T16:40:07.932Z,8.07
2019-04-20T16:44:18.256Z,8.93
2019-04-20T16:48:28.276Z,8.80
2019-04-20T16:52:38.872Z,8.77
2019-04-20T16:56:48.619Z,10.30
2019-04-20T17:00:57.540Z,9.33
2019-04-20T17:05:07.262Z,11.00
2019-04-20T17:09:16.224Z,9.40
2019-04-20T17:13:35.285Z,9.57
2019-04-20T17:17:36.064Z,9.60
2019-04-20T17:21:44.917Z,10.07
2019-04-20T17:25:55.669Z,21.93
2019-04-20T17:30:27.376Z,10.13
2019-04-20T17:34:57.252Z,9.00
2019-04-20T17:38:54.176Z,12.23
2019-04-20T17:43:07.493Z,12.23
2019-04-20T17:47:25.885Z,10.77
2019-04-20T17:51:39.980Z,10.53
2019-04-20T17:55:41.304Z,9.70
2019-04-20T17:59:57.978Z,11.97
2019-04-20T18:04:37.014Z,9.97
2019-04-20T18:08:35.620Z,20.30
2019-04-20T18:12:35.172Z,32.87
2019-04-20T18:16:56.580Z,17.40
2019-04-20T18:21:16.910Z,15.23
2019-04-20T18:25:55.246Z,24.77
2019-04-20T18:29:56.499Z,15.50
2019-04-20T18:33:48.793Z,11.60
2019-04-20T18:38:01.339Z,11.33
2019-04-20T18:42:18.425Z,11.90
2019-04-20T18:46:39.253Z,10.80
2019-04-20T18:50:35.571Z,10.97
2019-04-20T18:54:44.921Z,10.50
2019-04-20T18:58:53.447Z,10.77
2019-04-20T19:03:09.294Z,10.97
2019-04-20T19:07:14.159Z,11.87
2019-04-20T19:11:24.128Z,12.53
2019-04-20T19:15:55.986Z,12.20
2019-04-20T19:19:57.003Z,11.00
2019-04-20T19:24:10.987Z,12.93
2019-04-20T19:28:22.767Z,13.50
2019-04-20T19:32:39.520Z,15.93
2019-04-20T19:36:48.987Z,11.33
2019-04-20T19:40:58.397Z,10.80
2019-04-20T19:45:26.233Z,10.73
2019-04-20T19:49:23.029Z,13.87
2019-04-20T19:53:45.191Z,14.27
2019-04-20T19:57:52.407Z,11.10
2019-04-20T20:01:42.456Z,13.03
2019-04-20T20:05:54.140Z,13.30
2019-04-20T20:10:06.926Z,11.10
2019-04-20T20:14:18.012Z,11.40
2019-04-20T20:18:39.217Z,11.30
2019-04-20T20:22:41.397Z,10.63
2019-04-20T20:26:55.740Z,10.50
2019-04-20T20:31:08.655Z,12.50
2019-04-20T20:35:16.968Z,11.90
2019-04-20T20:39:24.215Z,10.90
2019-04-20T20:43:44.672Z,11.77
2019-04-20T20:48:00.457Z,10.63
2019-04-20T20:52:12.928Z,12.07
2019-04-20T20:56:10.836Z,11.70
2019-04-20T21:00:35.928Z,10.97
2019-04-20T21:04:25.757Z,13.73
2019-04-20T21:08:36.260Z,12.10
2019-04-20T21:12:53.339Z,19.80
2019-04-20T21:17:01.766Z,67.40
2019-04-20T21:21:21.975Z,53.07
2019-04-20T21:25:36.077Z,68.60
2019-04-20T21:29:47.449Z,27.07
2019-04-20T21:33:53.347Z,26.53
2019-04-20T21:38:07.586Z,30.60
2019-04-20T21:42:18.036Z,23.50
2019-04-20T21:46:24.899Z,36.60
2019-04-20T21:50:54.607Z,52.87
2019-04-20T21:54:45.710Z,33.60
2019-04-20T21:58:59.867Z,20.67
2019-04-20T22:03:09.241Z,17.97
2019-04-20T22:07:16.600Z,14.30
2019-04-20T22:11:25.931Z,14.97
2019-04-20T22:15:45.495Z,12.97
2019-04-20T22:20:01.457Z,13.90
2019-04-20T22:24:09.493Z,12.53
2019-04-20T22:28:08.788Z,15.37
2019-04-20T22:32:20.530Z,14.90
2019-04-20T22:36:35.535Z,13.30
2019-04-20T22:40:40.767Z,12.57
2019-04-20T22:44:58.720Z,15.07
2019-04-20T22:49:17.245Z,16.37
2019-04-20T22:53:22.620Z,13.23
2019-04-20T22:57:38.763Z,13.70
2019-04-20T23:01:41.883Z,13.00
2019-04-20T23:05:42.969Z,14.87
2019-04-20T23:09:54.957Z,12.13
2019-04-20T23:14:02.528Z,12.60
2019-04-20T23:18:11.937Z,15.20
2019-04-20T23:22:21.131Z,12.80
2019-04-20T23:26:35.970Z,12.50
2019-04-20T23:30:42.345Z,12.33
2019-04-20T23:34:57.665Z,17.13
2019-04-20T23:39:03.263Z,12.13
2019-04-20T23:43:26.413Z,13.30
2019-04-20T23:47:54.067Z,13.47
2019-04-20T23:52:26.068Z,14.23
2019-04-20T23:56:14.316Z,13.40
